createdAt,value
2022-12-08T00:01:53.400Z,24.63
2022-12-08T00:04:21.469Z,30.58
2022-12-08T00:07:08.018Z,26.35
2022-12-08T00:09:41.930Z,22.83
2022-12-08T00:12:13.492Z,31.63
2022-12-08T00:14:45.091Z,31.70
2022-12-08T00:19:44.010Z,32.75
2022-12-08T00:22:13.769Z,26.52
2022-12-08T00:24:44.910Z,28.73
2022-12-08T00:27:16.319Z,30.02
2022-12-08T00:29:45.690Z,28.55
2022-12-08T00:32:13.748Z,31.42
2022-12-08T00:34:41.859Z,31.75
2022-12-08T00:37:09.668Z,30.02
2022-12-08T00:39:37.585Z,30.27
2022-12-08T00:42:14.986Z,31.98
2022-12-08T00:44:45.004Z,29.90
2022-12-08T00:47:14.145Z,29.63
2022-12-08T00:49:42.535Z,27.25
2022-12-08T00:52:10.704Z,26.13
2022-12-08T00:54:38.555Z,32.67
2022-12-08T00:57:06.821Z,33.17
2022-12-08T00:59:34.941Z,27.58
2022-12-08T01:02:02.916Z,24.83
2022-12-08T01:04:30.944Z,28.23
2022-12-08T01:06:59.291Z,33.22
2022-12-08T01:09:27.315Z,26.10
2022-12-08T01:12:04.395Z,26.60
2022-12-08T01:17:45.383Z,30.27
2022-12-08T01:20:13.305Z,29.67
2022-12-08T01:22:41.205Z,31.58
2022-12-08T01:25:09.494Z,29.20
2022-12-08T01:27:37.418Z,28.63
2022-12-08T01:30:06.808Z,34.35
2022-12-08T01:32:35.218Z,33.03
2022-12-08T01:35:03.047Z,30.25
2022-12-08T01:37:30.868Z,26.13
2022-12-08T01:39:59.193Z,27.55
2022-12-08T01:42:27.182Z,30.45
2022-12-08T01:45:13.681Z,25.52
2022-12-08T01:47:47.234Z,32.58
2022-12-08T01:50:18.569Z,28.45
2022-12-08T01:53:12.830Z,30.92
2022-12-08T01:55:50.224Z,27.55
2022-12-08T01:58:50.001Z,26.73
2022-12-08T02:01:18.239Z,27.77
2022-12-08T02:04:05.276Z,30.05
2022-12-08T02:06:41.579Z,26.15
2022-12-08T02:09:09.763Z,31.70
2022-12-08T02:11:37.771Z,32.13
2022-12-08T02:14:10.359Z,25.98
2022-12-08T02:17:31.586Z,30.85
2022-12-08T02:20:29.956Z,26.65
2022-12-08T02:23:28.361Z,25.27
2022-12-08T02:26:17.869Z,26.90
2022-12-08T02:28:58.144Z,28.48
2022-12-08T02:32:14.347Z,26.13
2022-12-08T02:34:54.921Z,25.15
2022-12-08T02:38:08.100Z,23.52
2022-12-08T02:40:59.700Z,24.27
2022-12-08T02:43:42.497Z,26.10
2022-12-08T02:46:19.371Z,22.55
2022-12-08T02:48:51.424Z,23.15
2022-12-08T02:51:19.924Z,29.05
2022-12-08T02:53:48.748Z,31.30
2022-12-08T02:56:40.694Z,23.42
2022-12-08T02:59:32.367Z,24.35
2022-12-08T03:02:16.784Z,24.98
2022-12-08T03:04:54.916Z,25.83
2022-12-08T03:08:00.601Z,29.25
2022-12-08T03:11:04.059Z,32.42
2022-12-08T03:13:55.011Z,22.75
2022-12-08T03:16:30.104Z,22.05
2022-12-08T03:19:08.895Z,27.80
2022-12-08T03:22:42.452Z,26.52
2022-12-08T03:25:15.171Z,23.67
2022-12-08T03:27:43.702Z,22.83
2022-12-08T03:30:12.189Z,29.05
2022-12-08T03:33:05.056Z,27.98
2022-12-08T03:35:37.405Z,24.23
2022-12-08T03:38:12.958Z,23.75
2022-12-08T03:40:42.271Z,23.42
2022-12-08T03:43:10.694Z,22.20
2022-12-08T03:45:38.612Z,22.05
2022-12-08T03:48:06.604Z,22.38
2022-12-08T03:50:34.382Z,21.42
2022-12-08T03:53:02.495Z,22.23
2022-12-08T03:55:30.331Z,23.75
2022-12-08T03:57:58.181Z,20.17
2022-12-08T04:00:26.195Z,25.42
2022-12-08T04:02:54.711Z,22.63
2022-12-08T04:05:22.619Z,28.08
2022-12-08T04:07:50.729Z,22.25
2022-12-08T04:10:18.623Z,20.75
2022-12-08T04:12:46.406Z,23.20
2022-12-08T04:15:14.872Z,20.55
2022-12-08T04:17:42.755Z,23.60
2022-12-08T04:20:11.401Z,23.92
2022-12-08T04:22:39.445Z,20.42
2022-12-08T04:25:07.975Z,19.55
2022-12-08T04:27:35.733Z,23.65
2022-12-08T04:30:04.405Z,25.83
2022-12-08T04:32:32.597Z,20.70
2022-12-08T04:35:00.425Z,20.27
2022-12-08T04:37:29.045Z,22.48
2022-12-08T04:39:57.383Z,20.67
2022-12-08T04:42:25.195Z,22.23
2022-12-08T04:44:53.219Z,24.10
2022-12-08T04:47:22.284Z,20.45
2022-12-08T04:49:50.078Z,19.52
2022-12-08T04:52:18.067Z,23.27
2022-12-08T04:54:46.117Z,22.13
2022-12-08T04:57:14.171Z,20.58
2022-12-08T04:59:42.195Z,21.17
2022-12-08T05:02:10.427Z,23.25
2022-12-08T05:04:38.395Z,22.60
2022-12-08T05:07:06.710Z,23.13
2022-12-08T05:09:34.691Z,26.13
2022-12-08T05:12:04.114Z,28.95
2022-12-08T05:14:31.979Z,21.20
2022-12-08T05:17:03.629Z,23.77
2022-12-08T05:19:34.195Z,25.25
2022-12-08T05:22:02.240Z,21.60
2022-12-08T05:24:30.242Z,21.40
2022-12-08T05:26:58.206Z,18.67
2022-12-08T05:29:26.244Z,18.23
2022-12-08T05:31:54.209Z,19.27
2022-12-08T05:34:22.357Z,26.77
2022-12-08T05:36:50.326Z,21.40
2022-12-08T05:39:18.324Z,22.13
2022-12-08T05:41:46.293Z,20.30
2022-12-08T05:44:14.242Z,20.15
2022-12-08T05:46:42.217Z,20.92
2022-12-08T05:49:10.243Z,18.95
2022-12-08T05:51:38.185Z,25.10
2022-12-08T05:54:06.070Z,19.92
2022-12-08T05:56:34.318Z,18.48
2022-12-08T05:59:02.409Z,17.13
2022-12-08T06:01:32.097Z,17.45
2022-12-08T06:04:02.872Z,18.98
2022-12-08T06:06:31.637Z,18.40
2022-12-08T06:09:01.759Z,20.05
2022-12-08T06:11:33.031Z,19.08
2022-12-08T06:14:01.444Z,21.90
2022-12-08T06:16:31.106Z,15.93
2022-12-08T06:18:59.976Z,17.20
2022-12-08T06:21:27.988Z,17.25
2022-12-08T06:23:55.957Z,18.15
2022-12-08T06:26:24.312Z,17.27
2022-12-08T06:28:52.597Z,23.60
2022-12-08T06:31:26.093Z,18.60
2022-12-08T06:33:58.070Z,20.05
2022-12-08T06:36:28.877Z,21.27
2022-12-08T06:38:57.133Z,19.23
2022-12-08T06:41:26.072Z,21.80
2022-12-08T06:43:59.703Z,20.75
2022-12-08T06:46:27.635Z,18.80
2022-12-08T06:48:57.119Z,21.52
2022-12-08T06:51:25.271Z,25.70
2022-12-08T06:53:53.164Z,21.38
2022-12-08T06:56:24.057Z,19.63
2022-12-08T06:58:52.936Z,22.55
2022-12-08T07:01:21.219Z,19.10
2022-12-08T07:03:49.238Z,24.25
2022-12-08T07:06:22.734Z,28.52
2022-12-08T07:08:51.015Z,18.77
2022-12-08T07:11:22.034Z,22.13
2022-12-08T07:13:51.579Z,23.75
2022-12-08T07:16:19.868Z,32.33
2022-12-08T07:18:47.891Z,21.38
2022-12-08T07:21:17.388Z,29.40
2022-12-08T07:23:54.406Z,17.15
2022-12-08T07:26:27.081Z,15.13
2022-12-08T07:28:55.605Z,18.83
2022-12-08T07:31:25.798Z,21.85
2022-12-08T07:33:54.669Z,16.83
2022-12-08T07:36:23.300Z,21.67
2022-12-08T07:38:53.370Z,20.80
2022-12-08T07:41:25.196Z,24.10
2022-12-08T07:46:24.359Z,21.83
2022-12-08T07:48:55.758Z,18.30
2022-12-08T07:51:25.193Z,20.45
2022-12-08T07:53:55.054Z,20.02
2022-12-08T07:56:25.353Z,19.85
2022-12-08T07:58:53.284Z,20.83
2022-12-08T08:01:30.243Z,16.42
2022-12-08T08:04:01.914Z,19.17
2022-12-08T08:06:31.785Z,20.33
2022-12-08T08:08:59.697Z,17.48
2022-12-08T08:11:27.612Z,14.35
2022-12-08T08:13:58.094Z,20.45
2022-12-08T08:16:26.077Z,18.00
2022-12-08T08:18:54.290Z,16.73
2022-12-08T08:21:44.239Z,18.10
2022-12-08T08:24:10.882Z,18.38
2022-12-08T08:26:39.359Z,17.67
2022-12-08T08:29:07.235Z,19.30
2022-12-08T08:31:35.397Z,20.13
2022-12-08T08:34:06.722Z,17.05
2022-12-08T08:36:34.799Z,21.27
2022-12-08T08:39:03.751Z,18.75
2022-12-08T08:41:32.073Z,15.85
2022-12-08T08:43:59.949Z,21.17
2022-12-08T08:46:27.900Z,17.83
2022-12-08T08:48:57.114Z,22.23
2022-12-08T08:51:25.193Z,24.10
2022-12-08T08:53:53.072Z,17.70
2022-12-08T08:56:21.366Z,21.80
2022-12-08T08:58:50.223Z,18.98
2022-12-08T09:01:22.433Z,20.33
2022-12-08T09:03:50.598Z,24.98
2022-12-08T09:06:19.265Z,35.13
2022-12-08T09:08:48.574Z,24.42
2022-12-08T09:11:18.818Z,21.83
2022-12-08T09:13:51.814Z,22.05
2022-12-08T09:16:20.272Z,21.88
2022-12-08T09:18:51.377Z,21.38
2022-12-08T09:21:26.084Z,19.73
2022-12-08T09:23:58.300Z,18.75
2022-12-08T09:26:28.626Z,19.35
2022-12-08T09:28:58.235Z,18.80
2022-12-08T09:31:26.326Z,18.00
2022-12-08T09:33:54.886Z,21.73
2022-12-08T09:36:23.271Z,25.13
2022-12-08T09:38:53.851Z,20.42
2022-12-08T09:41:50.421Z,18.65
2022-12-08T09:44:55.685Z,19.40
2022-12-08T09:47:35.714Z,20.15
2022-12-08T09:50:09.698Z,17.30
2022-12-08T09:52:47.495Z,18.35
2022-12-08T09:55:49.527Z,18.45
2022-12-08T09:59:00.226Z,20.25
2022-12-08T10:01:34.710Z,17.67
2022-12-08T10:04:03.120Z,16.40
2022-12-08T10:06:39.339Z,22.17
2022-12-08T10:09:32.649Z,20.55
2022-12-08T10:12:45.803Z,19.98
2022-12-08T10:15:39.330Z,16.92
2022-12-08T10:18:18.800Z,17.95
2022-12-08T10:20:50.479Z,19.55
2022-12-08T10:26:15.724Z,19.80
2022-12-08T10:28:45.375Z,17.42
2022-12-08T10:31:25.589Z,17.90
2022-12-08T10:34:24.378Z,18.65
2022-12-08T10:36:58.579Z,20.23
2022-12-08T10:39:47.041Z,16.52
2022-12-08T10:42:14.991Z,16.73
2022-12-08T10:44:59.223Z,17.95
2022-12-08T10:47:29.924Z,16.92
2022-12-08T10:50:29.999Z,16.58
2022-12-08T10:53:29.673Z,19.05
2022-12-08T10:56:03.492Z,17.75
2022-12-08T10:58:44.556Z,16.52
2022-12-08T11:01:27.328Z,16.58
2022-12-08T11:04:03.562Z,17.02
2022-12-08T11:06:42.288Z,18.10
2022-12-08T11:09:37.475Z,14.98
2022-12-08T11:12:17.800Z,15.93
2022-12-08T11:14:46.197Z,14.35
2022-12-08T11:17:23.152Z,16.05
2022-12-08T11:20:05.240Z,17.67
2022-12-08T11:22:51.896Z,11.52
2022-12-08T11:25:27.913Z,14.15
2022-12-08T11:28:01.901Z,14.85
2022-12-08T11:30:41.047Z,12.63
2022-12-08T11:33:24.559Z,15.10
2022-12-08T11:36:05.366Z,12.77
2022-12-08T11:38:39.561Z,12.68
2022-12-08T11:41:39.679Z,14.30
2022-12-08T11:44:44.834Z,17.15
2022-12-08T11:47:26.437Z,15.23
2022-12-08T11:50:19.565Z,12.32
2022-12-08T11:52:51.710Z,17.00
2022-12-08T11:58:24.214Z,15.02
2022-12-08T12:00:52.170Z,14.43
2022-12-08T12:03:33.968Z,15.95
2022-12-08T12:09:31.268Z,15.02
2022-12-08T12:12:39.939Z,16.27
2022-12-08T12:16:01.044Z,14.75
2022-12-08T12:18:31.665Z,15.00
2022-12-08T12:21:10.105Z,13.90
2022-12-08T12:23:45.690Z,16.63
2022-12-08T12:26:37.739Z,14.82
2022-12-08T12:29:19.033Z,13.85
2022-12-08T12:32:07.769Z,16.17
2022-12-08T12:35:00.841Z,15.50
2022-12-08T12:37:40.508Z,14.73
2022-12-08T12:40:18.177Z,16.13
2022-12-08T12:43:22.935Z,16.42
2022-12-08T12:45:50.919Z,15.93
2022-12-08T12:48:25.834Z,14.63
2022-12-08T12:50:57.743Z,15.73
2022-12-08T12:53:25.851Z,14.07
2022-12-08T12:56:03.842Z,13.10
2022-12-08T12:58:31.637Z,13.57
2022-12-08T13:01:11.747Z,13.93
2022-12-08T13:03:45.977Z,14.75
2022-12-08T13:06:21.755Z,13.73
2022-12-08T13:08:56.734Z,14.77
2022-12-08T13:11:25.224Z,17.38
2022-12-08T13:14:04.479Z,15.90
2022-12-08T13:16:37.565Z,17.15
2022-12-08T13:19:14.192Z,15.77
2022-12-08T13:21:43.985Z,16.50
2022-12-08T13:24:17.168Z,17.13
2022-12-08T13:26:46.932Z,18.90
2022-12-08T13:29:21.047Z,16.48
2022-12-08T13:32:01.201Z,20.15
2022-12-08T13:34:45.353Z,19.02
2022-12-08T13:37:16.308Z,17.17
2022-12-08T13:40:16.809Z,22.00
2022-12-08T13:43:04.724Z,22.95
2022-12-08T13:55:20.031Z,19.52
2022-12-08T13:57:35.486Z,21.90
2022-12-08T14:00:15.222Z,19.90
2022-12-08T14:02:48.223Z,17.70
2022-12-08T14:05:29.706Z,16.38
2022-12-08T14:08:03.354Z,20.63
2022-12-08T14:10:32.237Z,17.77
2022-12-08T14:13:10.824Z,16.30
2022-12-08T14:15:40.941Z,20.05
2022-12-08T14:18:32.132Z,17.52
2022-12-08T14:21:20.775Z,20.70
2022-12-08T14:23:49.429Z,25.10
2022-12-08T14:26:18.206Z,27.20
2022-12-08T14:28:46.157Z,20.63
2022-12-08T14:31:14.843Z,19.70
2022-12-08T14:33:43.374Z,21.30
2022-12-08T14:36:15.903Z,22.88
2022-12-08T14:38:46.022Z,20.50
2022-12-08T14:41:14.632Z,19.38
2022-12-08T14:43:43.220Z,23.33
2022-12-08T14:46:23.030Z,21.30
2022-12-08T14:48:51.126Z,26.13
2022-12-08T14:51:22.029Z,34.85
2022-12-08T14:53:59.071Z,32.60
2022-12-08T14:56:57.086Z,27.70
2022-12-08T14:59:38.175Z,23.52
2022-12-08T15:02:24.445Z,24.50
2022-12-08T15:05:02.183Z,29.70
2022-12-08T15:07:45.169Z,27.55
2022-12-08T15:10:15.775Z,26.50
2022-12-08T15:13:06.103Z,25.05
2022-12-08T15:15:57.921Z,28.15
2022-12-08T15:21:05.502Z,31.23
2022-12-08T15:23:45.010Z,33.17
2022-12-08T15:26:23.206Z,26.55
2022-12-08T15:28:51.758Z,23.90
2022-12-08T15:31:19.953Z,27.50
2022-12-08T15:33:48.342Z,32.30
2022-12-08T15:36:16.583Z,28.33
2022-12-08T15:38:44.856Z,27.55
2022-12-08T15:41:15.090Z,31.05
2022-12-08T15:43:43.446Z,30.42
2022-12-08T15:46:12.913Z,28.38
2022-12-08T15:48:41.023Z,24.05
2022-12-08T15:51:09.019Z,26.27
2022-12-08T15:53:37.268Z,24.63
2022-12-08T15:58:57.693Z,25.17
2022-12-08T16:01:27.133Z,24.45
2022-12-08T16:09:43.784Z,28.10
2022-12-08T16:18:24.252Z,31.27
2022-12-08T16:21:19.071Z,26.02
2022-12-08T16:23:43.750Z,32.45
2022-12-08T16:29:19.879Z,31.05
2022-12-08T16:31:48.396Z,35.90
2022-12-08T16:34:16.209Z,34.70
2022-12-08T16:36:44.107Z,29.02
2022-12-08T16:39:14.694Z,31.58
2022-12-08T16:42:01.871Z,35.45
2022-12-08T16:44:30.438Z,34.50
2022-12-08T16:46:58.386Z,38.53
2022-12-08T16:49:26.215Z,33.60
2022-12-08T16:51:54.874Z,34.00
2022-12-08T16:54:22.659Z,30.85
2022-12-08T16:56:50.814Z,28.15
2022-12-08T16:59:18.968Z,26.77
2022-12-08T17:01:46.997Z,33.80
2022-12-08T17:04:30.861Z,29.10
2022-12-08T17:07:00.111Z,27.63
2022-12-08T17:09:28.794Z,38.67
2022-12-08T17:12:03.298Z,36.38
2022-12-08T17:14:35.421Z,43.35
2022-12-08T17:17:03.561Z,39.22
2022-12-08T17:19:31.593Z,35.42
2022-12-08T17:21:59.601Z,32.40
2022-12-08T17:24:29.253Z,33.30
2022-12-08T17:26:58.811Z,29.80
2022-12-08T17:29:26.842Z,34.10
2022-12-08T17:31:54.803Z,38.30
2022-12-08T17:34:22.682Z,37.90
2022-12-08T17:36:51.085Z,35.20
2022-12-08T17:39:19.539Z,34.75
2022-12-08T17:41:48.031Z,36.55
2022-12-08T17:44:19.363Z,33.75
2022-12-08T17:46:53.166Z,38.30
2022-12-08T17:49:26.354Z,41.72
2022-12-08T17:51:57.889Z,37.85
2022-12-08T17:54:27.161Z,33.45
2022-12-08T17:56:59.767Z,38.13
2022-12-08T17:59:29.352Z,32.30
2022-12-08T18:01:58.505Z,31.30
2022-12-08T18:04:28.999Z,33.08
2022-12-08T18:07:00.319Z,43.42
2022-12-08T18:09:31.376Z,32.85
2022-12-08T18:11:59.554Z,35.38
2022-12-08T18:14:27.824Z,30.75
2022-12-08T18:16:56.159Z,30.25
2022-12-08T18:19:24.292Z,31.02
2022-12-08T18:21:52.287Z,31.70
2022-12-08T18:24:23.675Z,29.65
2022-12-08T18:26:52.708Z,30.52
2022-12-08T18:29:22.703Z,30.02
2022-12-08T18:31:51.811Z,29.13
2022-12-08T18:34:19.860Z,32.88
2022-12-08T18:36:48.985Z,28.25
2022-12-08T18:39:30.493Z,34.38
2022-12-08T18:42:02.608Z,35.30
2022-12-08T18:44:30.732Z,32.00
2022-12-08T18:46:58.722Z,34.85
2022-12-08T18:49:28.224Z,36.30
2022-12-08T18:51:59.816Z,31.85
2022-12-08T18:54:57.777Z,35.47
2022-12-08T18:57:17.604Z,32.33
2022-12-08T18:59:45.957Z,31.15
2022-12-08T19:02:14.974Z,31.25
2022-12-08T19:04:44.460Z,31.77
2022-12-08T19:07:20.022Z,35.75
2022-12-08T19:09:51.454Z,35.42
2022-12-08T19:12:19.502Z,34.85
2022-12-08T19:14:47.609Z,34.30
2022-12-08T19:17:15.902Z,28.40
2022-12-08T19:19:43.846Z,33.78
2022-12-08T19:22:12.416Z,31.17
2022-12-08T19:24:40.786Z,32.65
2022-12-08T19:27:08.898Z,31.95
2022-12-08T19:29:36.792Z,34.38
2022-12-08T19:32:05.585Z,30.75
2022-12-08T19:34:33.567Z,31.30
2022-12-08T19:37:01.438Z,32.42
2022-12-08T19:39:47.957Z,31.45
2022-12-08T19:42:38.457Z,32.70
2022-12-08T19:45:14.955Z,37.42
2022-12-08T19:47:43.099Z,36.53
2022-12-08T19:50:32.230Z,34.47
2022-12-08T19:53:01.204Z,31.40
2022-12-08T19:55:29.712Z,35.13
2022-12-08T19:57:58.686Z,39.33
2022-12-08T20:00:26.803Z,31.67
2022-12-08T20:02:56.469Z,33.67
2022-12-08T20:05:25.095Z,35.58
2022-12-08T20:07:55.904Z,39.33
2022-12-08T20:10:29.638Z,34.35
2022-12-08T20:13:16.394Z,36.15
2022-12-08T20:15:45.410Z,32.58
2022-12-08T20:18:15.369Z,37.00
2022-12-08T20:20:45.165Z,29.75
2022-12-08T20:23:15.666Z,34.08
2022-12-08T20:25:46.285Z,31.15
2022-12-08T20:28:14.628Z,34.35
2022-12-08T20:30:45.383Z,30.65
2022-12-08T20:33:14.966Z,35.63
2022-12-08T20:35:43.763Z,34.03
2022-12-08T20:38:12.892Z,33.28
2022-12-08T20:40:44.615Z,31.70
2022-12-08T20:43:12.981Z,33.35
2022-12-08T20:45:40.984Z,33.17
2022-12-08T20:48:09.046Z,31.30
2022-12-08T20:50:37.090Z,31.20
2022-12-08T20:53:05.389Z,32.38
2022-12-08T20:55:35.742Z,34.30
2022-12-08T20:58:03.829Z,37.47
2022-12-08T21:00:31.973Z,32.45
2022-12-08T21:03:01.226Z,34.53
2022-12-08T21:05:31.463Z,29.90
2022-12-08T21:08:00.392Z,32.58
2022-12-08T21:10:28.876Z,31.77
2022-12-08T21:12:57.851Z,35.45
2022-12-08T21:15:28.273Z,36.15
2022-12-08T21:17:59.189Z,34.45
2022-12-08T21:20:28.890Z,29.48
2022-12-08T21:22:58.528Z,32.90
2022-12-08T21:25:27.649Z,27.90
2022-12-08T21:28:00.208Z,31.42
2022-12-08T21:30:34.563Z,29.85
2022-12-08T21:33:02.800Z,30.55
2022-12-08T21:35:32.206Z,30.35
2022-12-08T21:38:00.608Z,30.13
2022-12-08T21:40:28.950Z,31.10
2022-12-08T21:42:57.366Z,30.20
2022-12-08T21:45:25.700Z,32.47
2022-12-08T21:47:54.276Z,29.05
2022-12-08T21:50:22.484Z,32.20
2022-12-08T21:52:51.010Z,28.63
2022-12-08T21:55:20.395Z,32.42
2022-12-08T21:57:48.489Z,33.00
2022-12-08T22:00:18.127Z,34.03
2022-12-08T22:02:47.037Z,31.30
2022-12-08T22:05:16.125Z,31.85
2022-12-08T22:07:44.688Z,27.67
2022-12-08T22:10:12.773Z,32.67
2022-12-08T22:12:41.077Z,30.65
2022-12-08T22:15:11.402Z,29.83
2022-12-08T22:17:41.714Z,29.63
2022-12-08T22:20:14.118Z,29.42
2022-12-08T22:22:42.702Z,25.58
2022-12-08T22:25:12.137Z,28.60
2022-12-08T22:27:41.808Z,27.52
2022-12-08T22:30:11.857Z,26.23
2022-12-08T22:32:40.332Z,29.27
2022-12-08T22:35:08.951Z,27.52
2022-12-08T22:37:38.302Z,23.45
2022-12-08T22:40:07.827Z,20.90
2022-12-08T22:42:36.236Z,24.80
2022-12-08T22:45:04.575Z,21.88
2022-12-08T22:47:32.692Z,22.75
2022-12-08T22:50:01.060Z,21.13
2022-12-08T22:52:29.036Z,20.13
2022-12-08T22:54:59.708Z,22.35
2022-12-08T22:57:29.071Z,26.50
2022-12-08T22:59:57.429Z,19.90
2022-12-08T23:02:25.471Z,23.23
2022-12-08T23:04:57.869Z,20.77
2022-12-08T23:07:26.127Z,21.23
2022-12-08T23:09:54.255Z,19.20
2022-12-08T23:12:22.546Z,19.90
2022-12-08T23:14:50.598Z,18.67
2022-12-08T23:17:18.567Z,24.33
2022-12-08T23:19:47.366Z,23.55
2022-12-08T23:22:15.441Z,19.25
2022-12-08T23:24:43.897Z,24.65
2022-12-08T23:27:11.905Z,20.25
2022-12-08T23:29:39.824Z,19.85
2022-12-08T23:32:07.921Z,24.10
2022-12-08T23:34:36.337Z,22.02
2022-12-08T23:37:04.437Z,24.83
2022-12-08T23:39:32.486Z,20.05
2022-12-08T23:42:00.675Z,23.67
2022-12-08T23:44:28.708Z,21.23
2022-12-08T23:46:57.292Z,22.15
2022-12-08T23:49:25.728Z,22.65
2022-12-08T23:51:54.011Z,22.42
2022-12-08T23:54:21.989Z,18.77
2022-12-08T23:56:50.164Z,15.73
2022-12-08T23:59:18.237Z,17.15
